Time,TemperatureF,DewpointF,PressureIn,WindDirection,WindDirectionDegrees,WindSpeedMPH,WindSpeedGustMPH,Humidity,HourlyPrecipIn,Conditions,Clouds,dailyrainin,SoftwareType,DateUTC
2013-01-16 00:00:00,29.4,19.1,30.17,WSW,254,0.0,3.0,65,0.00,,,-99.99,Weather View 32 v70,2013-01-16 05:00:00,
2013-01-16 00:05:00,29.3,19.0,30.17,WSW,254,0.0,3.0,65,0.00,,,-99.99,Weather View 32 v70,2013-01-16 05:05:00,
2013-01-16 00:10:00,29.3,19.3,30.17,WSW,254,0.0,3.0,66,0.00,,,-99.99,Weather View 32 v70,2013-01-16 05:10:00,
2013-01-16 00:11:00,29.3,19.3,30.17,WSW,254,0.0,3.0,66,0.00,,,-99.99,Weather View 32 v70,2013-01-16 05:11:00,
2013-01-16 00:20:00,29.3,19.3,30.15,WSW,254,0.0,3.0,66,0.00,,,-99.99,Weather View 32 v70,2013-01-16 05:20:00,
2013-01-16 00:25:00,29.3,19.3,30.15,WSW,254,0.0,3.0,66,0.00,,,-99.99,Weather View 32 v70,2013-01-16 05:25:00,
2013-01-16 00:30:00,29.3,19.3,30.14,WSW,254,0.0,3.0,66,0.00,,,-99.99,Weather View 32 v70,2013-01-16 05:30:00,
2013-01-16 00:40:00,29.0,19.1,30.14,North,4,1.0,5.0,66,0.00,,,-99.99,Weather View 32 v70,2013-01-16 05:40:00,
2013-01-16 00:45:00,29.0,19.1,30.14,North,4,1.0,5.0,66,0.00,,,-99.99,Weather View 32 v70,2013-01-16 05:45:00,
2013-01-16 00:50:00,29.1,19.2,30.13,North,4,1.0,5.0,66,0.00,,,-99.99,Weather View 32 v70,2013-01-16 05:50:00,
2013-01-16 00:55:00,29.1,19.2,30.13,North,4,1.0,5.0,66,0.00,,,-99.99,Weather View 32 v70,2013-01-16 05:55:00,
2013-01-16 01:00:00,29.0,19.1,30.13,North,4,1.0,5.0,66,0.00,,,-99.99,Weather View 32 v70,2013-01-16 06:00:00,
2013-01-16 01:10:00,29.0,19.4,30.13,North,4,1.0,5.0,67,0.00,,,-99.99,Weather View 32 v70,2013-01-16 06:10:00,
2013-01-16 01:15:00,29.2,19.6,30.13,North,4,1.0,5.0,67,0.00,,,-99.99,Weather View 32 v70,2013-01-16 06:15:00,
2013-01-16 01:20:00,29.1,19.5,30.12,North,4,0.0,5.0,67,0.00,,,-99.99,Weather View 32 v70,2013-01-16 06:20:00,
2013-01-16 01:25:00,29.2,19.6,30.13,North,4,0.0,5.0,67,0.00,,,-99.99,Weather View 32 v70,2013-01-16 06:25:00,
2013-01-16 01:30:00,29.2,19.6,30.12,North,4,2.0,5.0,67,0.00,,,-99.99,Weather View 32 v70,2013-01-16 06:30:00,
2013-01-16 01:40:00,29.1,19.5,30.12,North,4,0.0,5.0,67,0.00,,,-99.99,Weather View 32 v70,2013-01-16 06:40:00,
2013-01-16 01:45:00,29.2,19.6,30.13,North,4,0.0,5.0,67,0.00,,,-99.99,Weather View 32 v70,2013-01-16 06:45:00,
2013-01-16 01:50:00,29.3,19.7,30.12,North,4,0.0,5.0,67,0.00,,,-99.99,Weather View 32 v70,2013-01-16 06:50:00,
2013-01-16 01:55:00,29.3,19.7,30.12,North,4,2.0,5.0,67,0.00,,,-99.99,Weather View 32 v70,2013-01-16 06:55:00,
2013-01-16 02:00:00,29.3,19.7,30.12,North,4,0.0,5.0,67,0.00,,,-99.99,Weather View 32 v70,2013-01-16 07:00:00,
2013-01-16 02:10:00,29.3,20.0,30.13,North,4,0.0,5.0,68,0.00,,,-99.99,Weather View 32 v70,2013-01-16 07:10:00,
2013-01-16 02:15:00,29.4,19.8,30.12,North,4,0.0,5.0,67,0.00,,,-99.99,Weather View 32 v70,2013-01-16 07:15:00,
2013-01-16 02:20:00,29.4,19.8,30.12,North,4,0.0,5.0,67,0.00,,,-99.99,Weather View 32 v70,2013-01-16 07:20:00,
2013-01-16 02:25:00,29.5,19.9,30.11,North,4,0.0,5.0,67,0.00,,,-99.99,Weather View 32 v70,2013-01-16 07:25:00,
2013-01-16 02:35:00,29.4,19.8,30.11,North,4,1.0,5.0,67,0.00,,,-99.99,Weather View 32 v70,2013-01-16 07:35:00,
2013-01-16 02:40:00,29.4,19.8,30.12,North,4,0.0,4.0,67,0.00,,,-99.99,Weather View 32 v70,2013-01-16 07:40:00,
2013-01-16 02:45:00,29.4,19.8,30.11,North,4,1.0,4.0,67,0.00,,,-99.99,Weather View 32 v70,2013-01-16 07:45:00,
2013-01-16 02:50:00,29.5,19.9,30.11,North,4,1.0,4.0,67,0.00,,,-99.99,Weather View 32 v70,2013-01-16 07:50:00,
2013-01-16 03:00:00,29.6,20.0,30.10,North,4,0.0,4.0,67,0.00,,,-99.99,Weather View 32 v70,2013-01-16 08:00:00,
2013-01-16 03:05:00,29.5,19.9,30.10,North,4,3.0,4.0,67,0.00,,,-99.99,Weather View 32 v70,2013-01-16 08:05:00,
2013-01-16 03:10:00,29.4,19.8,30.10,North,4,1.0,4.0,67,0.00,,,-99.99,Weather View 32 v70,2013-01-16 08:10:00,
2013-01-16 03:15:00,29.4,19.8,30.10,North,4,2.0,4.0,67,0.00,,,-99.99,Weather View 32 v70,2013-01-16 08:15:00,
2013-01-16 03:20:00,29.5,19.9,30.10,North,4,0.0,4.0,67,0.00,,,-99.99,Weather View 32 v70,2013-01-16 08:20:00,
2013-01-16 03:25:00,29.5,19.9,30.09,North,4,0.0,3.0,67,0.00,,,-99.99,Weather View 32 v70,2013-01-16 08:25:00,
2013-01-16 03:35:00,29.5,19.9,30.08,North,4,0.0,3.0,67,0.00,,,-99.99,Weather View 32 v70,2013-01-16 08:35:00,
2013-01-16 03:40:00,29.6,20.0,30.08,North,4,0.0,3.0,67,0.00,,,-99.99,Weather View 32 v70,2013-01-16 08:40:00,
2013-01-16 03:45:00,29.6,20.0,30.08,North,4,0.0,3.0,67,0.00,,,-99.99,Weather View 32 v70,2013-01-16 08:45:00,
2013-01-16 03:50:00,29.6,20.0,30.07,North,4,0.0,3.0,67,0.00,,,-99.99,Weather View 32 v70,2013-01-16 08:50:00,
2013-01-16 04:00:00,29.7,20.1,30.06,North,4,0.0,3.0,67,0.00,,,-99.99,Weather View 32 v70,2013-01-16 09:00:00,
2013-01-16 04:05:00,29.8,20.2,30.06,North,4,0.0,3.0,67,0.00,,,-99.99,Weather View 32 v70,2013-01-16 09:05:00,
2013-01-16 04:10:00,29.8,20.2,30.06,North,4,0.0,3.0,67,0.00,,,-99.99,Weather View 32 v70,2013-01-16 09:10:00,
2013-01-16 04:15:00,29.8,20.2,30.06,North,4,0.0,3.0,67,0.00,,,-99.99,Weather View 32 v70,2013-01-16 09:15:00,
2013-01-16 04:20:00,29.7,20.1,30.06,North,4,0.0,3.0,67,0.00,,,-99.99,Weather View 32 v70,2013-01-16 09:20:00,
2013-01-16 04:30:00,29.8,20.5,30.05,North,4,0.0,3.0,68,0.00,,,-99.99,Weather View 32 v70,2013-01-16 09:30:00,
2013-01-16 04:40:00,29.8,20.5,30.04,North,4,0.0,3.0,68,0.00,,,-99.99,Weather View 32 v70,2013-01-16 09:40:00,
2013-01-16 04:45:00,29.8,20.5,30.04,North,4,0.0,3.0,68,0.00,,,-99.99,Weather View 32 v70,2013-01-16 09:45:00,
2013-01-16 04:50:00,29.9,20.6,30.04,North,4,0.0,3.0,68,0.00,,,-99.99,Weather View 32 v70,2013-01-16 09:50:00,
2013-01-16 05:00:00,29.9,20.6,30.04,North,4,1.0,3.0,68,0.00,,,-99.99,Weather View 32 v70,2013-01-16 10:00:00,
2013-01-16 05:05:00,29.9,20.6,30.04,North,4,0.0,3.0,68,0.00,,,-99.99,Weather View 32 v70,2013-01-16 10:05:00,
2013-01-16 05:10:00,29.7,20.4,30.04,North,4,0.0,2.0,68,0.00,,,-99.99,Weather View 32 v70,2013-01-16 10:10:00,
2013-01-16 05:20:00,29.6,20.3,30.04,North,4,0.0,2.0,68,0.00,,,-99.99,Weather View 32 v70,2013-01-16 10:20:00,
2013-01-16 05:30:00,29.6,20.7,30.04,North,4,0.0,2.0,69,0.00,,,-99.99,Weather View 32 v70,2013-01-16 10:30:00,
2013-01-16 05:40:00,29.6,20.7,30.03,North,4,0.0,2.0,69,0.00,,,-99.99,Weather View 32 v70,2013-01-16 10:40:00,
2013-01-16 05:45:00,29.6,20.7,30.03,North,4,0.0,2.0,69,0.00,,,-99.99,Weather View 32 v70,2013-01-16 10:45:00,
2013-01-16 05:50:00,29.7,20.8,30.03,North,4,0.0,2.0,69,0.00,,,-99.99,Weather View 32 v70,2013-01-16 10:50:00,
2013-01-16 06:00:00,29.9,21.0,30.02,North,4,0.0,2.0,69,0.00,,,-99.99,Weather View 32 v70,2013-01-16 11:00:00,
2013-01-16 06:05:00,29.9,21.0,30.02,North,4,0.0,1.0,69,0.00,,,-99.99,Weather View 32 v70,2013-01-16 11:05:00,
2013-01-16 06:10:00,29.9,21.3,30.02,North,4,0.0,1.0,70,0.00,,,-99.99,Weather View 32 v70,2013-01-16 11:10:00,
2013-01-16 06:15:00,30.0,21.4,30.01,North,4,0.0,1.0,70,0.00,,,-99.99,Weather View 32 v70,2013-01-16 11:15:00,
2013-01-16 06:25:00,30.0,21.1,30.01,North,4,1.0,2.0,69,0.00,,,-99.99,Weather View 32 v70,2013-01-16 11:25:00,
2013-01-16 06:30:00,30.0,21.4,30.00,North,4,0.0,2.0,70,0.00,,,-99.99,Weather View 32 v70,2013-01-16 11:30:00,
2013-01-16 06:35:00,30.0,21.4,30.01,North,4,1.0,2.0,70,0.00,,,-99.99,Weather View 32 v70,2013-01-16 11:35:00,
2013-01-16 06:40:00,30.0,21.4,30.02,North,4,0.0,2.0,70,0.00,,,-99.99,Weather View 32 v70,2013-01-16 11:40:00,
2013-01-16 06:45:00,30.0,21.1,30.01,North,4,0.0,2.0,69,0.00,,,-99.99,Weather View 32 v70,2013-01-16 11:45:00,
2013-01-16 06:55:00,30.0,21.4,30.01,North,4,0.0,2.0,70,0.00,,,-99.99,Weather View 32 v70,2013-01-16 11:55:00,
2013-01-16 07:00:00,29.9,21.0,30.01,North,4,0.0,2.0,69,0.00,,,-99.99,Weather View 32 v70,2013-01-16 12:00:00,
2013-01-16 07:05:00,29.9,21.3,30.01,North,4,0.0,2.0,70,0.00,,,-99.99,Weather View 32 v70,2013-01-16 12:05:00,
2013-01-16 07:10:00,30.0,21.4,30.01,North,4,0.0,2.0,70,0.00,,,-99.99,Weather View 32 v70,2013-01-16 12:10:00,
2013-01-16 07:15:00,29.9,21.3,30.01,North,4,2.0,3.0,70,0.00,,,-99.99,Weather View 32 v70,2013-01-16 12:15:00,
2013-01-16 07:25:00,30.0,21.4,30.01,North,4,2.0,3.0,70,0.00,,,-99.99,Weather View 32 v70,2013-01-16 12:25:00,
2013-01-16 07:30:00,30.0,21.4,30.00,North,4,1.0,3.0,70,0.00,,,-99.99,Weather View 32 v70,2013-01-16 12:30:00,
2013-01-16 07:35:00,30.1,21.5,30.00,North,4,0.0,3.0,70,0.00,,,-99.99,Weather View 32 v70,2013-01-16 12:35:00,
2013-01-16 07:40:00,30.0,21.4,29.99,North,4,0.0,3.0,70,0.00,,,-99.99,Weather View 32 v70,2013-01-16 12:40:00,
2013-01-16 07:50:00,30.1,21.5,29.99,North,4,0.0,3.0,70,0.00,,,-99.99,Weather View 32 v70,2013-01-16 12:50:00,
2013-01-16 07:55:00,30.1,21.8,29.99,North,4,0.0,3.0,71,0.00,,,-99.99,Weather View 32 v70,2013-01-16 12:55:00,
2013-01-16 08:00:00,30.0,21.7,29.99,North,4,0.0,3.0,71,0.00,,,-99.99,Weather View 32 v70,2013-01-16 13:00:00,
2013-01-16 08:05:00,30.0,21.7,29.99,North,4,0.0,3.0,71,0.00,,,-99.99,Weather View 32 v70,2013-01-16 13:05:00,
2013-01-16 08:10:00,30.0,21.7,29.98,North,4,0.0,3.0,71,0.00,,,-99.99,Weather View 32 v70,2013-01-16 13:10:00,
2013-01-16 08:16:00,30.1,22.2,29.99,North,4,0.0,3.0,72,0.00,,,-99.99,Weather View 32 v70,2013-01-16 13:16:00,
2013-01-16 08:25:00,30.2,22.3,29.99,North,4,1.0,2.0,72,0.00,,,-99.99,Weather View 32 v70,2013-01-16 13:25:00,
2013-01-16 08:30:00,30.3,22.4,29.98,North,4,1.0,3.0,72,0.00,,,-99.99,Weather View 32 v70,2013-01-16 13:30:00,
2013-01-16 08:35:00,30.3,22.4,29.98,North,4,1.0,3.0,72,0.00,,,-99.99,Weather View 32 v70,2013-01-16 13:35:00,
2013-01-16 08:45:00,30.4,22.5,29.98,SE,143,1.0,4.0,72,0.00,,,-99.99,Weather View 32 v70,2013-01-16 13:45:00,
2013-01-16 08:50:00,30.5,22.5,29.98,SE,142,2.0,4.0,72,0.00,,,-99.99,Weather View 32 v70,2013-01-16 13:50:00,
2013-01-16 08:55:00,30.5,22.5,29.98,SE,142,0.0,4.0,72,0.00,,,-99.99,Weather View 32 v70,2013-01-16 13:55:00,
2013-01-16 09:00:00,30.6,22.6,29.97,SE,142,0.0,4.0,72,0.00,,,-99.99,Weather View 32 v70,2013-01-16 14:00:00,
2013-01-16 09:10:00,30.8,22.8,29.97,SE,142,1.0,4.0,72,0.00,,,-99.99,Weather View 32 v70,2013-01-16 14:10:00,
2013-01-16 09:15:00,30.8,22.8,29.96,SE,142,2.0,4.0,72,0.00,,,-99.99,Weather View 32 v70,2013-01-16 14:15:00,
2013-01-16 09:20:00,30.9,22.6,29.96,SE,142,2.0,4.0,71,0.00,,,-99.99,Weather View 32 v70,2013-01-16 14:20:00,
2013-01-16 09:25:00,31.0,22.7,29.96,SE,142,2.0,4.0,71,0.00,,,-99.99,Weather View 32 v70,2013-01-16 14:25:00,
2013-01-16 09:35:00,31.2,22.9,29.94,SE,140,2.0,4.0,71,0.00,,,-99.99,Weather View 32 v70,2013-01-16 14:35:00,
2013-01-16 09:40:00,31.3,22.6,29.94,SE,140,1.0,4.0,70,0.00,,,-99.99,Weather View 32 v70,2013-01-16 14:40:00,
2013-01-16 09:45:00,31.4,22.7,29.94,SE,140,2.0,4.0,70,0.00,,,-99.99,Weather View 32 v70,2013-01-16 14:45:00,
2013-01-16 09:55:00,31.7,23.0,29.94,SE,140,0.0,4.0,70,0.00,,,-99.99,Weather View 32 v70,2013-01-16 14:55:00,
2013-01-16 10:05:00,31.9,22.9,29.93,SE,140,2.0,4.0,69,0.00,,,-99.99,Weather View 32 v70,2013-01-16 15:05:00,
2013-01-16 10:10:00,32.1,23.1,29.92,SE,140,0.0,4.0,69,0.00,,,-99.99,Weather View 32 v70,2013-01-16 15:10:00,
2013-01-16 10:17:00,32.3,23.3,29.92,SE,140,0.0,4.0,69,0.00,,,-99.99,Weather View 32 v70,2013-01-16 15:17:00,
2013-01-16 10:25:00,32.6,23.2,29.92,SE,140,0.0,4.0,68,0.00,,,-99.99,Weather View 32 v70,2013-01-16 15:25:00,
2013-01-16 10:30:00,32.7,23.3,29.92,SE,140,0.0,4.0,68,0.00,,,-99.99,Weather View 32 v70,2013-01-16 15:30:00,
2013-01-16 10:40:00,32.9,23.5,29.91,SE,140,0.0,3.0,68,0.00,,,-99.99,Weather View 32 v70,2013-01-16 15:40:00,
2013-01-16 10:45:00,32.9,23.1,29.91,SE,140,0.0,3.0,67,0.00,,,-99.99,Weather View 32 v70,2013-01-16 15:45:00,
2013-01-16 10:50:00,33.0,23.2,29.91,SE,140,3.0,3.0,67,0.00,,,-99.99,Weather View 32 v70,2013-01-16 15:50:00,
2013-01-16 11:00:00,33.1,23.3,29.90,SE,140,0.0,3.0,67,0.00,,,-99.99,Weather View 32 v70,2013-01-16 16:00:00,
2013-01-16 11:05:00,33.1,23.3,29.89,SE,140,1.0,3.0,67,0.00,,,-99.99,Weather View 32 v70,2013-01-16 16:05:00,
2013-01-16 11:10:00,33.2,23.4,29.88,SE,140,0.0,3.0,67,0.00,,,-99.99,Weather View 32 v70,2013-01-16 16:10:00,
2013-01-16 11:17:00,33.3,23.5,29.88,SE,140,0.0,3.0,67,0.00,,,-99.99,Weather View 32 v70,2013-01-16 16:17:00,
2013-01-16 11:25:00,33.4,23.6,29.88,SE,140,0.0,3.0,67,0.00,,,-99.99,Weather View 32 v70,2013-01-16 16:25:00,
2013-01-16 11:30:00,33.6,23.8,29.88,SE,140,0.0,3.0,67,0.00,,,-99.99,Weather View 32 v70,2013-01-16 16:30:00,
2013-01-16 11:35:00,33.7,23.9,29.87,SE,140,3.0,4.0,67,0.00,,,-99.99,Weather View 32 v70,2013-01-16 16:35:00,
2013-01-16 11:40:00,33.8,24.0,29.86,SE,140,0.0,4.0,67,0.00,,,-99.99,Weather View 32 v70,2013-01-16 16:40:00,
2013-01-16 11:50:00,34.2,24.4,29.87,WSW,250,2.0,6.0,67,0.00,,,-99.99,Weather View 32 v70,2013-01-16 16:50:00,
2013-01-16 11:55:00,34.3,24.8,29.87,WSW,252,3.0,6.0,68,0.00,,,-99.99,Weather View 32 v70,2013-01-16 16:55:00,
2013-01-16 12:00:00,34.4,24.6,29.87,SW,222,5.0,6.0,67,0.00,,,-99.99,Weather View 32 v70,2013-01-16 17:00:00,
2013-01-16 12:10:00,34.4,24.9,29.87,SW,231,4.0,6.0,68,0.00,,,-99.99,Weather View 32 v70,2013-01-16 17:10:00,
2013-01-16 12:15:00,34.5,25.0,29.86,WSW,241,3.0,6.0,68,0.00,,,-99.99,Weather View 32 v70,2013-01-16 17:15:00,
2013-01-16 12:20:00,34.8,25.3,29.85,WSW,245,4.0,6.0,68,0.00,,,-99.99,Weather View 32 v70,2013-01-16 17:20:00,
2013-01-16 12:25:00,35.0,25.5,29.86,SW,231,4.0,6.0,68,0.00,,,-99.99,Weather View 32 v70,2013-01-16 17:25:00,
2013-01-16 12:35:00,35.2,25.7,29.86,West,269,3.0,8.0,68,0.00,,,-99.99,Weather View 32 v70,2013-01-16 17:35:00,
2013-01-16 12:40:00,35.3,25.8,29.86,SSW,211,4.0,8.0,68,0.00,,,-99.99,Weather View 32 v70,2013-01-16 17:40:00,
2013-01-16 12:45:00,35.3,25.8,29.85,West,262,2.0,8.0,68,0.00,,,-99.99,Weather View 32 v70,2013-01-16 17:45:00,
2013-01-16 12:50:00,35.4,25.9,29.85,SW,231,4.0,8.0,68,0.00,,,-99.99,Weather View 32 v70,2013-01-16 17:50:00,
2013-01-16 13:00:00,35.6,26.1,29.85,WSW,257,6.0,12.0,68,0.00,,,-99.99,Weather View 32 v70,2013-01-16 18:00:00,
2013-01-16 13:05:00,35.8,26.3,29.85,SW,225,5.0,12.0,68,0.00,,,-99.99,Weather View 32 v70,2013-01-16 18:05:00,
2013-01-16 13:10:00,36.0,26.1,29.84,West,269,5.0,12.0,67,0.00,,,-99.99,Weather View 32 v70,2013-01-16 18:10:00,
2013-01-16 13:18:00,36.1,26.2,29.85,WSW,244,4.0,12.0,67,0.00,,,-99.99,Weather View 32 v70,2013-01-16 18:18:00,
2013-01-16 13:25:00,36.7,26.8,29.84,SW,225,8.0,12.0,67,0.00,,,-99.99,Weather View 32 v70,2013-01-16 18:25:00,
2013-01-16 13:30:00,36.9,27.0,29.84,SW,221,6.0,13.0,67,0.00,,,-99.99,Weather View 32 v70,2013-01-16 18:30:00,
2013-01-16 13:40:00,37.0,27.1,29.84,WNW,282,4.0,13.0,67,0.00,,,-99.99,Weather View 32 v70,2013-01-16 18:40:00,
2013-01-16 13:45:00,37.0,27.1,29.84,SW,218,8.0,13.0,67,0.00,,,-99.99,Weather View 32 v70,2013-01-16 18:45:00,
2013-01-16 13:50:00,36.9,27.3,29.84,SW,219,9.0,13.0,68,0.00,,,-99.99,Weather View 32 v70,2013-01-16 18:50:00,
2013-01-16 13:55:00,36.7,27.1,29.83,SW,221,9.0,14.0,68,0.00,,,-99.99,Weather View 32 v70,2013-01-16 18:55:00,
2013-01-16 14:05:00,36.6,27.4,29.84,West,273,7.0,14.0,69,0.00,,,-99.99,Weather View 32 v70,2013-01-16 19:05:00,
2013-01-16 14:10:00,36.5,27.6,29.84,SW,216,5.0,14.0,70,0.00,,,-99.99,Weather View 32 v70,2013-01-16 19:10:00,
2013-01-16 14:19:00,36.4,27.5,29.84,WSW,255,6.0,14.0,70,0.00,,,-99.99,Weather View 32 v70,2013-01-16 19:19:00,
2013-01-16 14:25:00,36.2,27.7,29.84,WNW,291,5.0,15.0,71,0.00,,,-99.99,Weather View 32 v70,2013-01-16 19:25:00,
2013-01-16 14:30:00,36.3,27.8,29.83,West,273,3.0,15.0,71,0.00,,,-99.99,Weather View 32 v70,2013-01-16 19:30:00,
2013-01-16 14:35:00,36.4,27.9,29.83,WSW,254,4.0,15.0,71,0.00,,,-99.99,Weather View 32 v70,2013-01-16 19:35:00,
2013-01-16 14:40:00,36.5,28.0,29.83,WSW,253,7.0,15.0,71,0.00,,,-99.99,Weather View 32 v70,2013-01-16 19:40:00,
2013-01-16 14:50:00,37.1,27.9,29.83,West,259,7.0,16.0,69,0.00,,,-99.99,Weather View 32 v70,2013-01-16 19:50:00,
2013-01-16 14:55:00,37.2,28.0,29.83,SW,220,9.0,19.0,69,0.00,,,-99.99,Weather View 32 v70,2013-01-16 19:55:00,
2013-01-16 15:00:00,37.2,28.0,29.82,SW,223,6.0,19.0,69,0.00,,,-99.99,Weather View 32 v70,2013-01-16 20:00:00,
2013-01-16 15:10:00,37.0,26.7,29.83,SW,221,13.0,19.0,66,0.00,,,-99.99,Weather View 32 v70,2013-01-16 20:10:00,
2013-01-16 15:15:00,36.8,26.9,29.83,SW,234,6.0,19.0,67,0.00,,,-99.99,Weather View 32 v70,2013-01-16 20:15:00,
2013-01-16 15:20:00,36.7,26.8,29.83,WSW,239,12.0,19.0,67,0.00,,,-99.99,Weather View 32 v70,2013-01-16 20:20:00,
2013-01-16 15:25:00,36.6,26.7,29.82,West,260,7.0,19.0,67,0.00,,,-99.99,Weather View 32 v70,2013-01-16 20:25:00,
2013-01-16 15:35:00,36.3,27.1,29.82,WSW,246,7.0,19.0,69,0.00,,,-99.99,Weather View 32 v70,2013-01-16 20:35:00,
2013-01-16 15:40:00,36.3,27.1,29.82,West,268,5.0,19.0,69,0.00,,,-99.99,Weather View 32 v70,2013-01-16 20:40:00,
2013-01-16 15:45:00,36.2,27.0,29.82,SW,215,1.0,19.0,69,0.00,,,-99.99,Weather View 32 v70,2013-01-16 20:45:00,
2013-01-16 15:50:00,36.2,27.0,29.82,SW,225,11.0,19.0,69,0.00,,,-99.99,Weather View 32 v70,2013-01-16 20:50:00,
2013-01-16 16:00:00,36.2,26.6,29.83,SW,227,8.0,19.0,68,0.00,,,-99.99,Weather View 32 v70,2013-01-16 21:00:00,
2013-01-16 16:05:00,36.2,26.3,29.83,SW,226,12.0,19.0,67,0.00,,,-99.99,Weather View 32 v70,2013-01-16 21:05:00,
2013-01-16 16:10:00,36.0,26.1,29.83,WSW,244,5.0,19.0,67,0.00,,,-99.99,Weather View 32 v70,2013-01-16 21:10:00,
2013-01-16 16:20:00,35.6,25.7,29.84,SW,226,9.0,20.0,67,0.00,,,-99.99,Weather View 32 v70,2013-01-16 21:20:00,
2013-01-16 16:30:00,35.4,25.9,29.83,SW,217,10.0,20.0,68,0.00,,,-99.99,Weather View 32 v70,2013-01-16 21:30:00,
2013-01-16 16:35:00,35.3,25.8,29.84,SW,226,12.0,20.0,68,0.00,,,-99.99,Weather View 32 v70,2013-01-16 21:35:00,
2013-01-16 16:40:00,35.2,25.7,29.84,SW,214,6.0,20.0,68,0.00,,,-99.99,Weather View 32 v70,2013-01-16 21:40:00,
2013-01-16 16:50:00,34.9,25.8,29.83,SW,235,9.0,20.0,69,0.00,,,-99.99,Weather View 32 v70,2013-01-16 21:50:00,
2013-01-16 16:55:00,34.8,25.7,29.83,SW,215,8.0,20.0,69,0.00,,,-99.99,Weather View 32 v70,2013-01-16 21:55:00,
2013-01-16 17:05:00,34.6,25.5,29.83,SW,222,9.0,20.0,69,0.00,,,-99.99,Weather View 32 v70,2013-01-16 22:05:00,
2013-01-16 17:15:00,34.6,25.5,29.83,SW,220,14.0,20.0,69,0.00,,,-99.99,Weather View 32 v70,2013-01-16 22:15:00,
2013-01-16 17:20:00,34.5,25.7,29.83,SW,215,7.0,20.0,70,0.00,,,-99.99,Weather View 32 v70,2013-01-16 22:20:00,
2013-01-16 17:30:00,34.4,25.6,29.83,SW,220,6.0,20.0,70,0.00,,,-99.99,Weather View 32 v70,2013-01-16 22:30:00,
2013-01-16 17:35:00,34.3,25.5,29.84,WSW,248,9.0,18.0,70,0.00,,,-99.99,Weather View 32 v70,2013-01-16 22:35:00,
2013-01-16 17:40:00,34.3,25.5,29.84,SW,228,9.0,18.0,70,0.00,,,-99.99,Weather View 32 v70,2013-01-16 22:40:00,
2013-01-16 17:50:00,34.2,25.4,29.84,West,272,2.0,18.0,70,0.00,,,-99.99,Weather View 32 v70,2013-01-16 22:50:00,
2013-01-16 17:55:00,34.2,25.4,29.84,WSW,245,8.0,18.0,70,0.00,,,-99.99,Weather View 32 v70,2013-01-16 22:55:00,
2013-01-16 18:00:00,34.2,25.4,29.84,SW,236,7.0,18.0,70,0.00,,,-99.99,Weather View 32 v70,2013-01-16 23:00:00,
2013-01-16 18:05:00,34.1,25.3,29.84,SW,229,6.0,18.0,70,0.00,,,-99.99,Weather View 32 v70,2013-01-16 23:05:00,
2013-01-16 18:15:00,34.1,25.0,29.85,SW,226,6.0,18.0,69,0.00,,,-99.99,Weather View 32 v70,2013-01-16 23:15:00,
2013-01-16 18:20:00,34.1,25.3,29.85,WSW,239,4.0,18.0,70,0.00,,,-99.99,Weather View 32 v70,2013-01-16 23:20:00,
2013-01-16 18:25:00,34.1,25.3,29.85,SW,225,9.0,18.0,70,0.00,,,-99.99,Weather View 32 v70,2013-01-16 23:25:00,
2013-01-16 18:30:00,34.1,25.7,29.85,WSW,253,4.0,17.0,71,0.00,,,-99.99,Weather View 32 v70,2013-01-16 23:30:00,
2013-01-16 18:40:00,34.2,25.8,29.85,SW,228,8.0,18.0,71,0.00,,,-99.99,Weather View 32 v70,2013-01-16 23:40:00,
2013-01-16 18:45:00,34.1,26.0,29.85,SW,227,8.0,18.0,72,0.00,,,-99.99,Weather View 32 v70,2013-01-16 23:45:00,
2013-01-16 18:50:00,34.2,26.4,29.86,SW,220,7.0,18.0,73,0.00,,,-99.99,Weather View 32 v70,2013-01-16 23:50:00,
2013-01-16 19:00:00,34.2,26.4,29.85,SW,219,11.0,18.0,73,0.00,,,-99.99,Weather View 32 v70,2013-01-17 00:00:00,
2013-01-16 19:05:00,34.2,26.8,29.85,SW,227,8.0,18.0,74,0.00,,,-99.99,Weather View 32 v70,2013-01-17 00:05:00,
2013-01-16 19:10:00,34.1,26.3,29.85,SW,226,8.0,18.0,73,0.00,,,-99.99,Weather View 32 v70,2013-01-17 00:10:00,
2013-01-16 19:15:00,34.1,26.3,29.85,SW,226,6.0,18.0,73,0.00,,,-99.99,Weather View 32 v70,2013-01-17 00:15:00,
2013-01-16 19:22:00,33.9,26.2,29.85,SW,225,5.0,18.0,73,0.00,,,-99.99,Weather View 32 v70,2013-01-17 00:22:00,
2013-01-16 19:30:00,33.7,25.6,29.85,SW,228,6.0,18.0,72,0.00,,,-99.99,Weather View 32 v70,2013-01-17 00:30:00,
2013-01-16 19:35:00,33.6,25.5,29.85,SW,226,11.0,15.0,72,0.00,,,-99.99,Weather View 32 v70,2013-01-17 00:35:00,
2013-01-16 19:40:00,33.6,25.2,29.86,SW,221,5.0,15.0,71,0.00,,,-99.99,Weather View 32 v70,2013-01-17 00:40:00,
2013-01-16 19:45:00,33.5,24.8,29.85,SW,220,10.0,15.0,70,0.00,,,-99.99,Weather View 32 v70,2013-01-17 00:45:00,
2013-01-16 19:55:00,33.5,24.4,29.85,SW,230,6.0,15.0,69,0.00,,,-99.99,Weather View 32 v70,2013-01-17 00:55:00,
2013-01-16 20:00:00,33.5,24.1,29.86,SW,216,9.0,15.0,68,0.00,,,-99.99,Weather View 32 v70,2013-01-17 01:00:00,
2013-01-16 20:05:00,33.5,23.7,29.85,SW,224,7.0,15.0,67,0.00,,,-99.99,Weather View 32 v70,2013-01-17 01:05:00,
2013-01-16 20:10:00,33.5,23.0,29.85,SW,218,9.0,15.0,65,0.00,,,-99.99,Weather View 32 v70,2013-01-17 01:10:00,
2013-01-16 20:20:00,33.5,22.6,29.85,WSW,243,7.0,15.0,64,0.00,,,-99.99,Weather View 32 v70,2013-01-17 01:20:00,
2013-01-16 20:25:00,33.5,22.2,29.85,SW,223,5.0,15.0,63,0.00,,,-99.99,Weather View 32 v70,2013-01-17 01:25:00,
2013-01-16 20:30:00,33.5,21.9,29.85,SW,228,10.0,15.0,62,0.00,,,-99.99,Weather View 32 v70,2013-01-17 01:30:00,
2013-01-16 20:35:00,33.6,22.0,29.85,SW,222,3.0,15.0,62,0.00,,,-99.99,Weather View 32 v70,2013-01-17 01:35:00,
2013-01-16 20:45:00,33.9,21.9,29.85,WSW,239,6.0,15.0,61,0.00,,,-99.99,Weather View 32 v70,2013-01-17 01:45:00,
2013-01-16 20:50:00,34.1,22.0,29.86,SW,229,10.0,16.0,61,0.00,,,-99.99,Weather View 32 v70,2013-01-17 01:50:00,
2013-01-16 20:55:00,34.6,22.5,29.86,WSW,239,7.0,16.0,61,0.00,,,-99.99,Weather View 32 v70,2013-01-17 01:55:00,
2013-01-16 21:00:00,34.9,22.4,29.86,West,275,12.0,17.0,60,0.00,,,-99.99,Weather View 32 v70,2013-01-17 02:00:00,
2013-01-16 21:10:00,35.5,21.8,29.87,SW,224,12.0,19.0,57,0.00,,,-99.99,Weather View 32 v70,2013-01-17 02:10:00,
2013-01-16 21:15:00,35.5,21.8,29.87,SW,216,11.0,21.0,57,0.00,,,-99.99,Weather View 32 v70,2013-01-17 02:15:00,
2013-01-16 21:20:00,35.6,22.3,29.88,WSW,248,9.0,21.0,58,0.00,,,-99.99,Weather View 32 v70,2013-01-17 02:20:00,
2013-01-16 21:30:00,35.7,22.4,29.88,West,279,9.0,24.0,58,0.00,,,-99.99,Weather View 32 v70,2013-01-17 02:30:00,
2013-01-16 21:40:00,35.7,22.4,29.88,SW,235,4.0,24.0,58,0.00,,,-99.99,Weather View 32 v70,2013-01-17 02:40:00,
2013-01-16 21:45:00,35.7,21.9,29.88,WSW,242,7.0,24.0,57,0.00,,,-99.99,Weather View 32 v70,2013-01-17 02:45:00,
2013-01-16 21:55:00,35.7,22.4,29.88,WSW,239,14.0,24.0,58,0.00,,,-99.99,Weather View 32 v70,2013-01-17 02:55:00,
2013-01-16 22:00:00,35.7,22.8,29.88,West,261,11.0,24.0,59,0.00,,,-99.99,Weather View 32 v70,2013-01-17 03:00:00,
2013-01-16 22:10:00,35.7,22.8,29.87,SW,221,8.0,24.0,59,0.00,,,-99.99,Weather View 32 v70,2013-01-17 03:10:00,
2013-01-16 22:15:00,35.7,23.2,29.88,SW,224,9.0,24.0,60,0.00,,,-99.99,Weather View 32 v70,2013-01-17 03:15:00,
2013-01-16 22:20:00,35.6,23.1,29.88,SW,228,11.0,24.0,60,0.00,,,-99.99,Weather View 32 v70,2013-01-17 03:20:00,
2013-01-16 22:25:00,35.7,23.2,29.88,West,272,3.0,23.0,60,0.00,,,-99.99,Weather View 32 v70,2013-01-17 03:25:00,
2013-01-16 22:30:00,35.8,24.0,29.88,WNW,290,5.0,23.0,62,0.00,,,-99.99,Weather View 32 v70,2013-01-17 03:30:00,
2013-01-16 22:40:00,35.7,23.6,29.87,West,272,10.0,21.0,61,0.00,,,-99.99,Weather View 32 v70,2013-01-17 03:40:00,
2013-01-16 22:45:00,35.7,23.9,29.87,WSW,251,9.0,21.0,62,0.00,,,-99.99,Weather View 32 v70,2013-01-17 03:45:00,
2013-01-16 22:50:00,35.7,24.3,29.87,West,261,7.0,23.0,63,0.00,,,-99.99,Weather View 32 v70,2013-01-17 03:50:00,
2013-01-16 22:55:00,35.7,24.3,29.88,WSW,240,8.0,23.0,63,0.00,,,-99.99,Weather View 32 v70,2013-01-17 03:55:00,
2013-01-16 23:05:00,35.7,24.3,29.88,WSW,250,9.0,23.0,63,0.00,,,-99.99,Weather View 32 v70,2013-01-17 04:05:00,
2013-01-16 23:10:00,35.6,25.0,29.89,West,265,12.0,23.0,65,0.00,,,-99.99,Weather View 32 v70,2013-01-17 04:10:00,
2013-01-16 23:15:00,35.2,25.7,29.89,WSW,256,4.0,23.0,68,0.00,,,-99.99,Weather View 32 v70,2013-01-17 04:15:00,
2013-01-16 23:20:00,34.9,25.8,29.89,West,273,11.0,23.0,69,0.00,,,-99.99,Weather View 32 v70,2013-01-17 04:20:00,
2013-01-16 23:30:00,34.7,26.6,29.89,SW,226,8.0,23.0,72,0.01,,,-99.99,Weather View 32 v70,2013-01-17 04:30:00,
2013-01-16 23:35:00,34.3,26.5,29.89,WSW,243,11.0,23.0,73,0.01,,,-99.99,Weather View 32 v70,2013-01-17 04:35:00,
2013-01-16 23:40:00,34.2,26.1,29.89,West,264,3.0,23.0,72,0.01,,,-99.99,Weather View 32 v70,2013-01-17 04:40:00,
2013-01-16 23:45:00,34.2,25.8,29.89,WSW,247,16.0,23.0,71,0.01,,,-99.99,Weather View 32 v70,2013-01-17 04:45:00,
2013-01-16 23:55:00,34.4,26.0,29.89,SW,223,5.0,22.0,71,0.01,,,-99.99,Weather View 32 v70,2013-01-17 04:55:00,